PWSweather.com
Personal Weather Stations
Station Observations
KNYLONGL2
Adirondack Acres, Long Lake, NY 12847

Adirondack AcresLong Lake, NY 12847

Lat: 43.979118, Lon: -74.43445500000001

Elevation: 1650

Station Type: Oregon Scientific

http://www.adirondackacres.com

Latest ConditionsUpdated 7:15:00 PM EST Sunday, Nov 19, 2017
Currently Today's Max Today's Min Today's Average
Temperature 26.9°F-2.8°C 44.7°F7.1°C 26.4°F-3.1°C 32.2°F0.1°C
Dew Point 23.0°F-5.0°C 44.1°F6.7°C 22.7°F-5.2°C 29.9°F-1.2°C
Winds 2.0 mph WSW3.2 kmh WSW 9.0 mph S14.5 kmh S - 3.0 mph 4.8 kmh
Wind Gusts 7.0 mph11.3 kmh 27.0 mph43.5 kmh - -
Humidity 85% 98% 85% 91%
Pressure 29.58 in1001.7 mb 29.58 in1001.7 mb 29.01 in982.4 mb -
Precipitation - 0.21 in5.3 mm - -
Hour Temp Dew Point Humidity Winds Wind Gusts Pressure Precip Precip Rate Daily Precip Total
07:15 PM 26.9°F-2.8°C 23.0°F-5.0°C 85% 2.0 mph WSW3.2 kmh WSW 7.0 mph11.3 kmh 29.58 in1001.7 mb 0.00 in0.0 mm 0.00 in0.0 mm 0.21 in5.3 mm
07:10 PM 26.9°F-2.8°C 23.0°F-5.0°C 85% 3.0 mph WSW4.8 kmh WSW 7.0 mph11.3 kmh 29.58 in1001.7 mb 0.00 in0.0 mm 0.00 in0.0 mm 0.21 in5.3 mm
07:05 PM 26.9°F-2.8°C 23.0°F-5.0°C 85% 3.0 mph WSW4.8 kmh WSW 8.0 mph12.9 kmh 29.57 in1001.4 mb 0.00 in0.0 mm 0.00 in0.0 mm 0.21 in5.3 mm
07:00 PM 27.0°F-2.8°C 23.1°F-4.9°C 85% 3.0 mph WSW4.8 kmh WSW 8.0 mph12.9 kmh 29.57 in1001.4 mb 0.00 in0.0 mm 0.00 in0.0 mm 0.21 in5.3 mm
06:55 PM 27.0°F-2.8°C 23.1°F-4.9°C 85% 2.0 mph SW3.2 kmh SW 7.0 mph11.3 kmh 29.57 in1001.4 mb 0.00 in0.0 mm 0.00 in0.0 mm 0.21 in5.3 mm
06:50 PM 27.1°F-2.7°C 23.2°F-4.9°C 85% 3.0 mph SW4.8 kmh SW 12.0 mph19.3 kmh 29.58 in1001.7 mb 0.00 in0.0 mm 0.00 in0.0 mm 0.21 in5.3 mm
06:45 PM 27.1°F-2.7°C 23.2°F-4.9°C 85% 4.0 mph SW6.4 kmh SW 12.0 mph19.3 kmh 29.58 in1001.7 mb 0.00 in0.0 mm 0.00 in0.0 mm 0.21 in5.3 mm
06:40 PM 27.2°F-2.7°C 23.3°F-4.8°C 85% 4.0 mph SSW6.4 kmh SSW 13.0 mph20.9 kmh 29.58 in1001.7 mb 0.00 in0.0 mm 0.00 in0.0 mm 0.21 in5.3 mm
06:35 PM 27.2°F-2.7°C 23.3°F-4.8°C 85% 5.0 mph SSW8.0 kmh SSW 13.0 mph20.9 kmh 29.58 in1001.7 mb 0.00 in0.0 mm 0.00 in0.0 mm 0.21 in5.3 mm
06:30 PM 27.1°F-2.7°C 23.2°F-4.9°C 85% 4.0 mph SSW6.4 kmh SSW 11.0 mph17.7 kmh 29.57 in1001.4 mb 0.00 in0.0 mm 0.00 in0.0 mm 0.21 in5.3 mm
06:25 PM 27.1°F-2.7°C 23.5°F-4.7°C 86% 4.0 mph SSW6.4 kmh SSW 10.0 mph16.1 kmh 29.57 in1001.4 mb 0.00 in0.0 mm 0.00 in0.0 mm 0.21 in5.3 mm
06:20 PM 27.1°F-2.7°C 23.5°F-4.7°C 86% 4.0 mph SW6.4 kmh SW 9.0 mph14.5 kmh 29.57 in1001.4 mb 0.00 in0.0 mm 0.00 in0.0 mm 0.21 in5.3 mm
06:15 PM 27.0°F-2.8°C 23.6°F-4.7°C 87% 3.0 mph SW4.8 kmh SW 8.0 mph12.9 kmh 29.57 in1001.4 mb 0.00 in0.0 mm 0.00 in0.0 mm 0.21 in5.3 mm
06:10 PM 26.9°F-2.8°C 23.8°F-4.6°C 88% 3.0 mph SSW4.8 kmh SSW 8.0 mph12.9 kmh 29.56 in1001.0 mb 0.00 in0.0 mm 0.00 in0.0 mm 0.21 in5.3 mm
06:05 PM 26.9°F-2.8°C 24.1°F-4.4°C 89% 3.0 mph SSW4.8 kmh SSW 8.0 mph12.9 kmh 29.56 in1001.0 mb 0.00 in0.0 mm 0.00 in0.0 mm 0.21 in5.3 mm
06:00 PM 26.9°F-2.8°C 24.1°F-4.4°C 89% 2.0 mph SW3.2 kmh SW 6.0 mph9.7 kmh 29.56 in1001.0 mb 0.00 in0.0 mm 0.00 in0.0 mm 0.21 in5.3 mm
05:55 PM 26.9°F-2.8°C 23.8°F-4.6°C 88% 2.0 mph SW3.2 kmh SW 8.0 mph12.9 kmh 29.55 in1000.7 mb 0.00 in0.0 mm 0.00 in0.0 mm 0.21 in5.3 mm
05:50 PM 27.0°F-2.8°C 23.9°F-4.5°C 88% 3.0 mph SSW4.8 kmh SSW 9.0 mph14.5 kmh 29.55 in1000.7 mb 0.00 in0.0 mm 0.00 in0.0 mm 0.21 in5.3 mm
05:45 PM 27.0°F-2.8°C 23.6°F-4.7°C 87% 3.0 mph SSW4.8 kmh SSW 12.0 mph19.3 kmh 29.55 in1000.7 mb 0.00 in0.0 mm 0.00 in0.0 mm 0.21 in5.3 mm
05:40 PM 27.0°F-2.8°C 23.6°F-4.7°C 87% 3.0 mph WSW4.8 kmh WSW 12.0 mph19.3 kmh 29.55 in1000.7 mb 0.00 in0.0 mm 0.00 in0.0 mm 0.21 in5.3 mm
05:35 PM 27.0°F-2.8°C 23.6°F-4.7°C 87% 3.0 mph W4.8 kmh W 9.0 mph14.5 kmh 29.55 in1000.7 mb 0.00 in0.0 mm 0.00 in0.0 mm 0.21 in5.3 mm
05:30 PM 27.0°F-2.8°C 23.4°F-4.8°C 86% 2.0 mph WSW3.2 kmh WSW 9.0 mph14.5 kmh 29.55 in1000.7 mb 0.00 in0.0 mm 0.00 in0.0 mm 0.21 in5.3 mm
05:25 PM 27.1°F-2.7°C 23.7°F-4.6°C 87% 2.0 mph WSW3.2 kmh WSW 9.0 mph14.5 kmh 29.55 in1000.7 mb 0.00 in0.0 mm 0.00 in0.0 mm 0.21 in5.3 mm
05:20 PM 27.2°F-2.7°C 23.8°F-4.6°C 87% 4.0 mph WSW6.4 kmh WSW 12.0 mph19.3 kmh 29.54 in1000.3 mb 0.00 in0.0 mm 0.00 in0.0 mm 0.21 in5.3 mm
05:15 PM 27.2°F-2.7°C 23.8°F-4.6°C 87% 4.0 mph SW6.4 kmh SW 12.0 mph19.3 kmh 29.55 in1000.7 mb 0.00 in0.0 mm 0.00 in0.0 mm 0.21 in5.3 mm
05:10 PM 27.2°F-2.7°C 24.1°F-4.4°C 88% 4.0 mph SW6.4 kmh SW 8.0 mph12.9 kmh 29.55 in1000.7 mb 0.00 in0.0 mm 0.00 in0.0 mm 0.21 in5.3 mm
05:05 PM 27.2°F-2.7°C 24.1°F-4.4°C 88% 4.0 mph WSW6.4 kmh WSW 10.0 mph16.1 kmh 29.55 in1000.7 mb 0.00 in0.0 mm 0.00 in0.0 mm 0.21 in5.3 mm
05:00 PM 27.1°F-2.7°C 24.3°F-4.3°C 89% 3.0 mph WSW4.8 kmh WSW 10.0 mph16.1 kmh 29.55 in1000.7 mb 0.00 in0.0 mm 0.00 in0.0 mm 0.21 in5.3 mm
04:55 PM 27.1°F-2.7°C 24.3°F-4.3°C 89% 3.0 mph SW4.8 kmh SW 8.0 mph12.9 kmh 29.55 in1000.7 mb 0.00 in0.0 mm 0.00 in0.0 mm 0.21 in5.3 mm
04:50 PM 27.0°F-2.8°C 24.2°F-4.3°C 89% 3.0 mph SSW4.8 kmh SSW 8.0 mph12.9 kmh 29.54 in1000.3 mb 0.00 in0.0 mm 0.00 in0.0 mm 0.21 in5.3 mm
04:45 PM 27.0°F-2.8°C 24.2°F-4.3°C 89% 3.0 mph SSW4.8 kmh SSW 8.0 mph12.9 kmh 29.54 in1000.3 mb 0.00 in0.0 mm 0.00 in0.0 mm 0.21 in5.3 mm
04:40 PM 26.9°F-2.8°C 24.1°F-4.4°C 89% 3.0 mph SSW4.8 kmh SSW 7.0 mph11.3 kmh 29.54 in1000.3 mb 0.00 in0.0 mm 0.00 in0.0 mm 0.21 in5.3 mm
04:35 PM 26.9°F-2.8°C 24.1°F-4.4°C 89% 5.0 mph SSW8.0 kmh SSW 13.0 mph20.9 kmh 29.53 in1000.0 mb 0.00 in0.0 mm 0.00 in0.0 mm 0.21 in5.3 mm
04:30 PM 26.7°F-2.9°C 23.9°F-4.5°C 89% 4.0 mph SSW6.4 kmh SSW 13.0 mph20.9 kmh 29.53 in1000.0 mb 0.00 in0.0 mm 0.00 in0.0 mm 0.21 in5.3 mm
04:25 PM 26.7°F-2.9°C 24.2°F-4.3°C 90% 3.0 mph SSW4.8 kmh SSW 10.0 mph16.1 kmh 29.53 in1000.0 mb 0.00 in0.0 mm 0.00 in0.0 mm 0.21 in5.3 mm
04:20 PM 26.6°F-3.0°C 24.1°F-4.4°C 90% 2.0 mph SW3.2 kmh SW 5.0 mph8.0 kmh 29.53 in1000.0 mb 0.00 in0.0 mm 0.00 in0.0 mm 0.21 in5.3 mm
04:15 PM 26.6°F-3.0°C 24.1°F-4.4°C 90% 2.0 mph SSW3.2 kmh SSW 6.0 mph9.7 kmh 29.53 in1000.0 mb 0.00 in0.0 mm 0.00 in0.0 mm 0.21 in5.3 mm
04:10 PM 26.5°F-3.1°C 24.0°F-4.4°C 90% 2.0 mph SSW3.2 kmh SSW 6.0 mph9.7 kmh 29.53 in1000.0 mb 0.00 in0.0 mm 0.00 in0.0 mm 0.21 in5.3 mm
04:05 PM 26.5°F-3.1°C 23.7°F-4.6°C 89% 3.0 mph SW4.8 kmh SW 7.0 mph11.3 kmh 29.52 in999.7 mb 0.00 in0.0 mm 0.00 in0.0 mm 0.21 in5.3 mm
04:00 PM 26.5°F-3.1°C 23.7°F-4.6°C 89% 2.0 mph SW3.2 kmh SW 7.0 mph11.3 kmh 29.52 in999.7 mb 0.00 in0.0 mm 0.00 in0.0 mm 0.21 in5.3 mm
03:55 PM 26.5°F-3.1°C 23.7°F-4.6°C 89% 2.0 mph SSW3.2 kmh SSW 6.0 mph9.7 kmh 29.52 in999.7 mb 0.00 in0.0 mm 0.00 in0.0 mm 0.21 in5.3 mm
03:50 PM 26.5°F-3.1°C 23.7°F-4.6°C 89% 3.0 mph SSW4.8 kmh SSW 10.0 mph16.1 kmh 29.52 in999.7 mb 0.00 in0.0 mm 0.00 in0.0 mm 0.21 in5.3 mm
03:45 PM 26.4°F-3.1°C 23.6°F-4.7°C 89% 3.0 mph SW4.8 kmh SW 10.0 mph16.1 kmh 29.51 in999.3 mb 0.00 in0.0 mm 0.00 in0.0 mm 0.21 in5.3 mm
03:40 PM 26.4°F-3.1°C 23.3°F-4.8°C 88% 2.0 mph WSW3.2 kmh WSW 6.0 mph9.7 kmh 29.51 in999.3 mb 0.00 in0.0 mm 0.00 in0.0 mm 0.21 in5.3 mm
03:35 PM 26.5°F-3.1°C 23.4°F-4.8°C 88% 2.0 mph WSW3.2 kmh WSW 4.0 mph6.4 kmh 29.51 in999.3 mb 0.00 in0.0 mm 0.00 in0.0 mm 0.21 in5.3 mm
03:30 PM 26.5°F-3.1°C 23.2°F-4.9°C 87% 3.0 mph SSW4.8 kmh SSW 9.0 mph14.5 kmh 29.51 in999.3 mb 0.00 in0.0 mm 0.00 in0.0 mm 0.21 in5.3 mm
03:25 PM 26.6°F-3.0°C 23.3°F-4.8°C 87% 3.0 mph SW4.8 kmh SW 9.0 mph14.5 kmh 29.50 in999.0 mb 0.00 in0.0 mm 0.00 in0.0 mm 0.21 in5.3 mm
03:20 PM 26.7°F-2.9°C 23.1°F-4.9°C 86% 4.0 mph SW6.4 kmh SW 11.0 mph17.7 kmh 29.50 in999.0 mb 0.00 in0.0 mm 0.00 in0.0 mm 0.21 in5.3 mm
03:15 PM 26.7°F-2.9°C 22.8°F-5.1°C 85% 4.0 mph SW6.4 kmh SW 11.0 mph17.7 kmh 29.50 in999.0 mb 0.00 in0.0 mm 0.00 in0.0 mm 0.21 in5.3 mm
03:10 PM 26.8°F-2.9°C 23.2°F-4.9°C 86% 3.0 mph SW4.8 kmh SW 9.0 mph14.5 kmh 29.50 in999.0 mb 0.00 in0.0 mm 0.00 in0.0 mm 0.21 in5.3 mm
03:05 PM 26.9°F-2.8°C 23.3°F-4.8°C 86% 3.0 mph SW4.8 kmh SW 10.0 mph16.1 kmh 29.49 in998.6 mb 0.00 in0.0 mm 0.00 in0.0 mm 0.21 in5.3 mm
03:00 PM 26.8°F-2.9°C 23.2°F-4.9°C 86% 3.0 mph SW4.8 kmh SW 10.0 mph16.1 kmh 29.49 in998.6 mb 0.00 in0.0 mm 0.00 in0.0 mm 0.21 in5.3 mm
02:55 PM 26.7°F-2.9°C 23.1°F-4.9°C 86% 3.0 mph SW4.8 kmh SW 8.0 mph12.9 kmh 29.49 in998.6 mb 0.00 in0.0 mm 0.00 in0.0 mm 0.21 in5.3 mm
02:50 PM 26.8°F-2.9°C 23.7°F-4.6°C 88% 4.0 mph SSW6.4 kmh SSW 9.0 mph14.5 kmh 29.49 in998.6 mb 0.00 in0.0 mm 0.00 in0.0 mm 0.21 in5.3 mm
02:45 PM 26.8°F-2.9°C 23.4°F-4.8°C 87% 4.0 mph SSW6.4 kmh SSW 9.0 mph14.5 kmh 29.48 in998.3 mb 0.00 in0.0 mm 0.00 in0.0 mm 0.21 in5.3 mm
02:40 PM 26.8°F-2.9°C 23.2°F-4.9°C 86% 3.0 mph SW4.8 kmh SW 9.0 mph14.5 kmh 29.48 in998.3 mb 0.00 in0.0 mm 0.00 in0.0 mm 0.21 in5.3 mm
02:35 PM 26.7°F-2.9°C 23.4°F-4.8°C 87% 3.0 mph WSW4.8 kmh WSW 8.0 mph12.9 kmh 29.48 in998.3 mb 0.00 in0.0 mm 0.00 in0.0 mm 0.21 in5.3 mm
02:30 PM 26.7°F-2.9°C 23.1°F-4.9°C 86% 3.0 mph WSW4.8 kmh WSW 9.0 mph14.5 kmh 29.47 in998.0 mb 0.00 in0.0 mm 0.00 in0.0 mm 0.21 in5.3 mm
02:25 PM 26.7°F-2.9°C 23.1°F-4.9°C 86% 3.0 mph W4.8 kmh W 9.0 mph14.5 kmh 29.46 in997.6 mb 0.00 in0.0 mm 0.00 in0.0 mm 0.21 in5.3 mm
02:20 PM 26.7°F-2.9°C 23.1°F-4.9°C 86% 4.0 mph W6.4 kmh W 10.0 mph16.1 kmh 29.46 in997.6 mb 0.00 in0.0 mm 0.00 in0.0 mm 0.21 in5.3 mm
02:15 PM 26.7°F-2.9°C 23.1°F-4.9°C 86% 4.0 mph SW6.4 kmh SW 13.0 mph20.9 kmh 29.46 in997.6 mb 0.00 in0.0 mm 0.00 in0.0 mm 0.21 in5.3 mm
02:10 PM 26.7°F-2.9°C 23.4°F-4.8°C 87% 4.0 mph SW6.4 kmh SW 13.0 mph20.9 kmh 29.46 in997.6 mb 0.00 in0.0 mm 0.00 in0.0 mm 0.21 in5.3 mm
02:05 PM 26.7°F-2.9°C 23.6°F-4.7°C 88% 6.0 mph SSW9.7 kmh SSW 15.0 mph24.1 kmh 29.46 in997.6 mb 0.00 in0.0 mm 0.00 in0.0 mm 0.21 in5.3 mm
02:00 PM 26.8°F-2.9°C 23.4°F-4.8°C 87% 5.0 mph SW8.0 kmh SW 15.0 mph24.1 kmh 29.45 in997.3 mb 0.00 in0.0 mm 0.00 in0.0 mm 0.21 in5.3 mm
01:55 PM 26.9°F-2.8°C 23.5°F-4.7°C 87% 4.0 mph WSW6.4 kmh WSW 12.0 mph19.3 kmh 29.45 in997.3 mb 0.00 in0.0 mm 0.00 in0.0 mm 0.21 in5.3 mm
01:50 PM 26.9°F-2.8°C 23.5°F-4.7°C 87% 3.0 mph SW4.8 kmh SW 12.0 mph19.3 kmh 29.45 in997.3 mb 0.00 in0.0 mm 0.00 in0.0 mm 0.21 in5.3 mm
01:45 PM 26.9°F-2.8°C 23.8°F-4.6°C 88% 2.0 mph WSW3.2 kmh WSW 12.0 mph19.3 kmh 29.44 in997.0 mb 0.00 in0.0 mm 0.00 in0.0 mm 0.21 in5.3 mm
01:40 PM 26.9°F-2.8°C 23.5°F-4.7°C 87% 3.0 mph W4.8 kmh W 6.0 mph9.7 kmh 29.44 in997.0 mb 0.00 in0.0 mm 0.00 in0.0 mm 0.21 in5.3 mm
01:35 PM 26.9°F-2.8°C 23.8°F-4.6°C 88% 4.0 mph SW6.4 kmh SW 17.0 mph27.4 kmh 29.44 in997.0 mb 0.00 in0.0 mm 0.00 in0.0 mm 0.21 in5.3 mm
01:30 PM 26.8°F-2.9°C 23.4°F-4.8°C 87% 4.0 mph WSW6.4 kmh WSW 17.0 mph27.4 kmh 29.43 in996.6 mb 0.00 in0.0 mm 0.00 in0.0 mm 0.21 in5.3 mm
01:25 PM 26.8°F-2.9°C 23.7°F-4.6°C 88% 4.0 mph WSW6.4 kmh WSW 10.0 mph16.1 kmh 29.43 in996.6 mb 0.00 in0.0 mm 0.00 in0.0 mm 0.21 in5.3 mm
01:20 PM 26.9°F-2.8°C 23.5°F-4.7°C 87% 4.0 mph W6.4 kmh W 8.0 mph12.9 kmh 29.43 in996.6 mb 0.00 in0.0 mm 0.00 in0.0 mm 0.21 in5.3 mm
01:15 PM 27.0°F-2.8°C 23.6°F-4.7°C 87% 4.0 mph WSW6.4 kmh WSW 13.0 mph20.9 kmh 29.42 in996.3 mb 0.00 in0.0 mm 0.00 in0.0 mm 0.21 in5.3 mm
01:10 PM 27.2°F-2.7°C 23.8°F-4.6°C 87% 5.0 mph SSW8.0 kmh SSW 13.0 mph20.9 kmh 29.42 in996.3 mb 0.00 in0.0 mm 0.00 in0.0 mm 0.21 in5.3 mm
01:05 PM 27.3°F-2.6°C 23.7°F-4.6°C 86% 5.0 mph SW8.0 kmh SW 17.0 mph27.4 kmh 29.43 in996.6 mb 0.00 in0.0 mm 0.00 in0.0 mm 0.21 in5.3 mm
01:00 PM 27.3°F-2.6°C 23.9°F-4.5°C 87% 3.0 mph W4.8 kmh W 17.0 mph27.4 kmh 29.42 in996.3 mb 0.00 in0.0 mm 0.00 in0.0 mm 0.21 in5.3 mm
12:55 PM 27.2°F-2.7°C 24.4°F-4.2°C 89% 3.0 mph W4.8 kmh W 11.0 mph17.7 kmh 29.41 in995.9 mb 0.00 in0.0 mm 0.00 in0.0 mm 0.21 in5.3 mm
12:50 PM 26.9°F-2.8°C 23.8°F-4.6°C 88% 3.0 mph WSW4.8 kmh WSW 11.0 mph17.7 kmh 29.41 in995.9 mb 0.00 in0.0 mm 0.00 in0.0 mm 0.21 in5.3 mm
12:45 PM 26.7°F-2.9°C 23.9°F-4.5°C 89% 3.0 mph SW4.8 kmh SW 11.0 mph17.7 kmh 29.41 in995.9 mb 0.00 in0.0 mm 0.00 in0.0 mm 0.21 in5.3 mm
12:40 PM 26.7°F-2.9°C 23.6°F-4.7°C 88% 4.0 mph SW6.4 kmh SW 11.0 mph17.7 kmh 29.41 in995.9 mb 0.00 in0.0 mm 0.00 in0.0 mm 0.21 in5.3 mm
12:35 PM 26.6°F-3.0°C 23.5°F-4.7°C 88% 4.0 mph WSW6.4 kmh WSW 11.0 mph17.7 kmh 29.41 in995.9 mb 0.00 in0.0 mm 0.00 in0.0 mm 0.21 in5.3 mm
12:30 PM 26.7°F-2.9°C 23.4°F-4.8°C 87% 5.0 mph SW8.0 kmh SW 14.0 mph22.5 kmh 29.40 in995.6 mb 0.00 in0.0 mm 0.00 in0.0 mm 0.21 in5.3 mm
12:25 PM 26.7°F-2.9°C 23.4°F-4.8°C 87% 4.0 mph SW6.4 kmh SW 14.0 mph22.5 kmh 29.40 in995.6 mb 0.00 in0.0 mm 0.00 in0.0 mm 0.21 in5.3 mm
12:20 PM 26.7°F-2.9°C 23.1°F-4.9°C 86% 4.0 mph SW6.4 kmh SW 10.0 mph16.1 kmh 29.39 in995.3 mb 0.00 in0.0 mm 0.00 in0.0 mm 0.21 in5.3 mm
12:15 PM 26.6°F-3.0°C 23.0°F-5.0°C 86% 4.0 mph SW6.4 kmh SW 13.0 mph20.9 kmh 29.39 in995.3 mb 0.00 in0.0 mm 0.00 in0.0 mm 0.21 in5.3 mm
12:10 PM 26.6°F-3.0°C 23.0°F-5.0°C 86% 4.0 mph WSW6.4 kmh WSW 13.0 mph20.9 kmh 29.39 in995.3 mb 0.00 in0.0 mm 0.00 in0.0 mm 0.21 in5.3 mm
12:05 PM 26.5°F-3.1°C 22.9°F-5.1°C 86% 4.0 mph SW6.4 kmh SW 10.0 mph16.1 kmh 29.38 in994.9 mb 0.00 in0.0 mm 0.00 in0.0 mm 0.21 in5.3 mm
12:00 PM 26.5°F-3.1°C 22.9°F-5.1°C 86% 4.0 mph SW6.4 kmh SW 10.0 mph16.1 kmh 29.38 in994.9 mb 0.00 in0.0 mm 0.00 in0.0 mm 0.21 in5.3 mm
11:55 AM 26.5°F-3.1°C 22.9°F-5.1°C 86% 4.0 mph WSW6.4 kmh WSW 12.0 mph19.3 kmh 29.38 in994.9 mb 0.00 in0.0 mm 0.00 in0.0 mm 0.21 in5.3 mm
11:50 AM 26.4°F-3.1°C 23.1°F-4.9°C 87% 4.0 mph SW6.4 kmh SW 12.0 mph19.3 kmh 29.37 in994.6 mb 0.00 in0.0 mm 0.00 in0.0 mm 0.21 in5.3 mm
11:45 AM 26.4°F-3.1°C 23.1°F-4.9°C 87% 4.0 mph WSW6.4 kmh WSW 10.0 mph16.1 kmh 29.37 in994.6 mb 0.00 in0.0 mm 0.00 in0.0 mm 0.21 in5.3 mm
11:40 AM 26.4°F-3.1°C 22.8°F-5.1°C 86% 3.0 mph SW4.8 kmh SW 10.0 mph16.1 kmh 29.37 in994.6 mb 0.00 in0.0 mm 0.00 in0.0 mm 0.21 in5.3 mm
11:35 AM 26.5°F-3.1°C 22.9°F-5.1°C 86% 4.0 mph W6.4 kmh W 15.0 mph24.1 kmh 29.38 in994.9 mb 0.00 in0.0 mm 0.00 in0.0 mm 0.21 in5.3 mm
11:30 AM 26.6°F-3.0°C 22.7°F-5.2°C 85% 5.0 mph W8.0 kmh W 15.0 mph24.1 kmh 29.38 in994.9 mb 0.00 in0.0 mm 0.00 in0.0 mm 0.21 in5.3 mm
11:25 AM 26.9°F-2.8°C 23.0°F-5.0°C 85% 5.0 mph WSW8.0 kmh WSW 14.0 mph22.5 kmh 29.37 in994.6 mb 0.00 in0.0 mm 0.00 in0.0 mm 0.21 in5.3 mm
11:20 AM 27.2°F-2.7°C 23.6°F-4.7°C 86% 5.0 mph WSW8.0 kmh WSW 14.0 mph22.5 kmh 29.36 in994.2 mb 0.00 in0.0 mm 0.00 in0.0 mm 0.21 in5.3 mm
11:15 AM 27.3°F-2.6°C 23.7°F-4.6°C 86% 4.0 mph SW6.4 kmh SW 9.0 mph14.5 kmh 29.36 in994.2 mb 0.00 in0.0 mm 0.00 in0.0 mm 0.21 in5.3 mm
11:10 AM 27.5°F-2.5°C 24.4°F-4.2°C 88% 4.0 mph SW6.4 kmh SW 9.0 mph14.5 kmh 29.36 in994.2 mb 0.00 in0.0 mm 0.00 in0.0 mm 0.21 in5.3 mm
11:05 AM 27.6°F-2.4°C 24.5°F-4.2°C 88% 4.0 mph WSW6.4 kmh WSW 9.0 mph14.5 kmh 29.34 in993.6 mb 0.00 in0.0 mm 0.00 in0.0 mm 0.21 in5.3 mm
11:00 AM 27.6°F-2.4°C 24.5°F-4.2°C 88% 4.0 mph WSW6.4 kmh WSW 10.0 mph16.1 kmh 29.34 in993.6 mb 0.00 in0.0 mm 0.00 in0.0 mm 0.21 in5.3 mm
10:55 AM 27.8°F-2.3°C 24.2°F-4.3°C 86% 5.0 mph WSW8.0 kmh WSW 12.0 mph19.3 kmh 29.34 in993.6 mb 0.00 in0.0 mm 0.00 in0.0 mm 0.21 in5.3 mm
10:50 AM 27.9°F-2.3°C 24.5°F-4.2°C 87% 4.0 mph WSW6.4 kmh WSW 12.0 mph19.3 kmh 29.34 in993.6 mb 0.00 in0.0 mm 0.00 in0.0 mm 0.21 in5.3 mm
10:45 AM 28.0°F-2.2°C 24.6°F-4.1°C 87% 5.0 mph WSW8.0 kmh WSW 12.0 mph19.3 kmh 29.33 in993.2 mb 0.00 in0.0 mm 0.00 in0.0 mm 0.21 in5.3 mm
10:40 AM 28.1°F-2.2°C 24.7°F-4.1°C 87% 4.0 mph WSW6.4 kmh WSW 12.0 mph19.3 kmh 29.33 in993.2 mb 0.00 in0.0 mm 0.00 in0.0 mm 0.21 in5.3 mm
10:35 AM 28.4°F-2.0°C 25.3°F-3.7°C 88% 4.0 mph WSW6.4 kmh WSW 11.0 mph17.7 kmh 29.33 in993.2 mb 0.00 in0.0 mm 0.00 in0.0 mm 0.21 in5.3 mm
10:30 AM 28.5°F-1.9°C 25.7°F-3.5°C 89% 4.0 mph SW6.4 kmh SW 9.0 mph14.5 kmh 29.32 in992.9 mb 0.00 in0.0 mm 0.00 in0.0 mm 0.21 in5.3 mm
10:25 AM 28.4°F-2.0°C 25.3°F-3.7°C 88% 4.0 mph SW6.4 kmh SW 10.0 mph16.1 kmh 29.32 in992.9 mb 0.00 in0.0 mm 0.00 in0.0 mm 0.21 in5.3 mm
10:20 AM 28.5°F-1.9°C 25.4°F-3.7°C 88% 4.0 mph WSW6.4 kmh WSW 13.0 mph20.9 kmh 29.32 in992.9 mb 0.00 in0.0 mm 0.00 in0.0 mm 0.21 in5.3 mm
10:15 AM 28.6°F-1.9°C 25.5°F-3.6°C 88% 4.0 mph SW6.4 kmh SW 13.0 mph20.9 kmh 29.32 in992.9 mb 0.00 in0.0 mm 0.00 in0.0 mm 0.21 in5.3 mm
10:10 AM 28.7°F-1.8°C 25.9°F-3.4°C 89% 4.0 mph SW6.4 kmh SW 9.0 mph14.5 kmh 29.31 in992.6 mb 0.00 in0.0 mm 0.00 in0.0 mm 0.21 in5.3 mm
10:05 AM 28.8°F-1.8°C 26.0°F-3.3°C 89% 5.0 mph SW8.0 kmh SW 11.0 mph17.7 kmh 29.31 in992.6 mb 0.00 in0.0 mm 0.00 in0.0 mm 0.21 in5.3 mm
10:00 AM 29.0°F-1.7°C 26.2°F-3.2°C 89% 4.0 mph WSW6.4 kmh WSW 14.0 mph22.5 kmh 29.30 in992.2 mb 0.00 in0.0 mm 0.00 in0.0 mm 0.21 in5.3 mm
09:55 AM 29.1°F-1.6°C 26.3°F-3.2°C 89% 4.0 mph SW6.4 kmh SW 14.0 mph22.5 kmh 29.30 in992.2 mb 0.00 in0.0 mm 0.00 in0.0 mm 0.21 in5.3 mm
09:50 AM 29.3°F-1.5°C 26.2°F-3.2°C 88% 4.0 mph SW6.4 kmh SW 12.0 mph19.3 kmh 29.30 in992.2 mb 0.00 in0.0 mm 0.00 in0.0 mm 0.21 in5.3 mm
09:45 AM 29.5°F-1.4°C 26.9°F-2.8°C 90% 5.0 mph SW8.0 kmh SW 12.0 mph19.3 kmh 29.29 in991.9 mb 0.00 in0.0 mm 0.00 in0.0 mm 0.21 in5.3 mm
09:40 AM 29.6°F-1.3°C 27.3°F-2.6°C 91% 5.0 mph SW8.0 kmh SW 13.0 mph20.9 kmh 29.28 in991.5 mb 0.00 in0.0 mm 0.00 in0.0 mm 0.21 in5.3 mm
09:35 AM 29.6°F-1.3°C 27.3°F-2.6°C 91% 5.0 mph WSW8.0 kmh WSW 13.0 mph20.9 kmh 29.27 in991.2 mb 0.00 in0.0 mm 0.00 in0.0 mm 0.21 in5.3 mm
09:30 AM 29.7°F-1.3°C 27.1°F-2.7°C 90% 5.0 mph WSW8.0 kmh WSW 10.0 mph16.1 kmh 29.27 in991.2 mb 0.00 in0.0 mm 0.00 in0.0 mm 0.21 in5.3 mm
09:25 AM 29.8°F-1.2°C 27.5°F-2.5°C 91% 5.0 mph SW8.0 kmh SW 13.0 mph20.9 kmh 29.26 in990.9 mb 0.00 in0.0 mm 0.00 in0.0 mm 0.21 in5.3 mm
09:20 AM 30.1°F-1.1°C 27.5°F-2.5°C 90% 5.0 mph SW8.0 kmh SW 13.0 mph20.9 kmh 29.25 in990.5 mb 0.00 in0.0 mm 0.00 in0.0 mm 0.21 in5.3 mm
09:15 AM 30.5°F-0.8°C 28.2°F-2.1°C 91% 4.0 mph SW6.4 kmh SW 12.0 mph19.3 kmh 29.25 in990.5 mb 0.00 in0.0 mm 0.00 in0.0 mm 0.21 in5.3 mm
09:10 AM 30.9°F-0.6°C 28.6°F-1.9°C 91% 4.0 mph SW6.4 kmh SW 12.0 mph19.3 kmh 29.24 in990.2 mb 0.00 in0.0 mm 0.00 in0.0 mm 0.21 in5.3 mm
09:05 AM 31.2°F-0.4°C 29.1°F-1.6°C 92% 3.0 mph SW4.8 kmh SW 11.0 mph17.7 kmh 29.24 in990.2 mb 0.00 in0.0 mm 0.00 in0.0 mm 0.21 in5.3 mm
09:00 AM 31.3°F-0.4°C 29.5°F-1.4°C 93% 3.0 mph SW4.8 kmh SW 8.0 mph12.9 kmh 29.23 in989.8 mb 0.00 in0.0 mm 0.00 in0.0 mm 0.21 in5.3 mm
08:55 AM 31.4°F-0.3°C 29.6°F-1.3°C 93% 3.0 mph WSW4.8 kmh WSW 8.0 mph12.9 kmh 29.22 in989.5 mb 0.01 in0.3 mm 0.00 in0.0 mm 0.21 in5.3 mm
08:50 AM 31.5°F-0.3°C 29.7°F-1.3°C 93% 3.0 mph WSW4.8 kmh WSW 8.0 mph12.9 kmh 29.22 in989.5 mb 0.01 in0.3 mm 0.00 in0.0 mm 0.21 in5.3 mm
08:45 AM 31.6°F-0.2°C 29.8°F-1.2°C 93% 3.0 mph WSW4.8 kmh WSW 7.0 mph11.3 kmh 29.22 in989.5 mb 0.02 in0.5 mm 0.00 in0.0 mm 0.21 in5.3 mm
08:40 AM 31.6°F-0.2°C 29.8°F-1.2°C 93% 4.0 mph WSW6.4 kmh WSW 11.0 mph17.7 kmh 29.21 in989.2 mb 0.04 in1.0 mm 0.00 in0.0 mm 0.21 in5.3 mm
08:35 AM 31.8°F-0.1°C 30.0°F-1.1°C 93% 4.0 mph SW6.4 kmh SW 12.0 mph19.3 kmh 29.20 in988.8 mb 0.04 in1.0 mm 0.00 in0.0 mm 0.21 in5.3 mm
08:30 AM 32.3°F0.2°C 30.2°F-1.0°C 92% 4.0 mph SSW6.4 kmh SSW 12.0 mph19.3 kmh 29.20 in988.8 mb 0.06 in1.5 mm 0.00 in0.0 mm 0.21 in5.3 mm
08:25 AM 32.7°F0.4°C 30.6°F-0.8°C 92% 4.0 mph SSW6.4 kmh SSW 11.0 mph17.7 kmh 29.18 in988.1 mb 0.06 in1.5 mm 0.00 in0.0 mm 0.21 in5.3 mm
08:20 AM 33.3°F0.7°C 30.7°F-0.7°C 90% 3.0 mph SSW4.8 kmh SSW 11.0 mph17.7 kmh 29.18 in988.1 mb 0.07 in1.8 mm 0.00 in0.0 mm 0.21 in5.3 mm
08:15 AM 34.4°F1.3°C 31.8°F-0.1°C 90% 4.0 mph WSW6.4 kmh WSW 12.0 mph19.3 kmh 29.17 in987.8 mb 0.07 in1.8 mm 0.00 in0.0 mm 0.21 in5.3 mm
08:10 AM 35.6°F2.0°C 32.4°F0.2°C 88% 5.0 mph WSW8.0 kmh WSW 12.0 mph19.3 kmh 29.15 in987.1 mb 0.07 in1.8 mm 0.00 in0.0 mm 0.21 in5.3 mm
08:05 AM 37.8°F3.2°C 34.3°F1.3°C 87% 4.0 mph WNW6.4 kmh WNW 11.0 mph17.7 kmh 29.14 in986.8 mb 0.07 in1.8 mm 0.00 in0.0 mm 0.21 in5.3 mm
08:00 AM 40.4°F4.7°C 37.1°F2.8°C 88% 4.0 mph W6.4 kmh W 11.0 mph17.7 kmh 29.12 in986.1 mb 0.07 in1.8 mm 0.01 in0.3 mm 0.21 in5.3 mm
07:55 AM 42.6°F5.9°C 40.2°F4.6°C 91% 5.0 mph SW8.0 kmh SW 11.0 mph17.7 kmh 29.10 in985.4 mb 0.06 in1.5 mm 0.12 in3.0 mm 0.20 in5.1 mm
07:50 AM 44.0°F6.7°C 42.1°F5.6°C 93% 7.0 mph SSW11.3 kmh SSW 12.0 mph19.3 kmh 29.08 in984.8 mb 0.05 in1.3 mm 0.12 in3.0 mm 0.19 in4.8 mm
07:45 AM 44.6°F7.0°C 43.5°F6.4°C 96% 7.0 mph SSW11.3 kmh SSW 12.0 mph19.3 kmh 29.06 in984.1 mb 0.04 in1.0 mm 0.00 in0.0 mm 0.18 in4.6 mm
07:40 AM 44.7°F7.1°C 43.9°F6.6°C 97% 7.0 mph S11.3 kmh S 16.0 mph25.7 kmh 29.05 in983.7 mb 0.04 in1.0 mm 0.12 in3.0 mm 0.17 in4.3 mm
07:35 AM 44.7°F7.1°C 43.9°F6.6°C 97% 7.0 mph S11.3 kmh S 18.0 mph29.0 kmh 29.05 in983.7 mb 0.03 in0.8 mm 0.00 in0.0 mm 0.16 in4.1 mm
07:30 AM 44.7°F7.1°C 43.9°F6.6°C 97% 7.0 mph SSW11.3 kmh SSW 18.0 mph29.0 kmh 29.05 in983.7 mb 0.03 in0.8 mm 0.00 in0.0 mm 0.15 in3.8 mm
07:25 AM 44.7°F7.1°C 43.9°F6.6°C 97% 7.0 mph SSW11.3 kmh SSW 13.0 mph20.9 kmh 29.04 in983.4 mb 0.03 in0.8 mm 0.12 in3.0 mm 0.15 in3.8 mm
07:20 AM 44.6°F7.0°C 44.1°F6.7°C 98% 9.0 mph S14.5 kmh S 27.0 mph43.5 kmh 29.04 in983.4 mb 0.02 in0.5 mm 0.00 in0.0 mm 0.14 in3.6 mm
07:15 AM 43.8°F6.6°C 43.0°F6.1°C 97% 6.0 mph S9.7 kmh S 27.0 mph43.5 kmh 29.03 in983.1 mb 0.03 in0.8 mm 0.00 in0.0 mm 0.14 in3.6 mm
07:10 AM 39.9°F4.4°C 39.1°F3.9°C 97% 2.0 mph S3.2 kmh S 13.0 mph20.9 kmh 29.03 in983.1 mb 0.03 in0.8 mm 0.00 in0.0 mm 0.14 in3.6 mm
07:05 AM 36.7°F2.6°C 35.9°F2.2°C 97% Calm Calm 5.0 mph8.0 kmh 29.03 in983.1 mb 0.04 in1.0 mm 0.00 in0.0 mm 0.14 in3.6 mm
07:00 AM 36.3°F2.4°C 35.5°F1.9°C 97% Calm Calm -- 29.03 in983.1 mb 0.05 in1.3 mm 0.00 in0.0 mm 0.14 in3.6 mm
06:55 AM 36.4°F2.4°C 35.6°F2.0°C 97% Calm Calm -- 29.02 in982.7 mb 0.06 in1.5 mm 0.00 in0.0 mm 0.14 in3.6 mm
06:50 AM 36.5°F2.5°C 35.7°F2.1°C 97% Calm Calm -- 29.02 in982.7 mb 0.06 in1.5 mm 0.00 in0.0 mm 0.14 in3.6 mm
06:45 AM 36.5°F2.5°C 35.7°F2.1°C 97% 1.0 mph NE1.6 kmh NE 3.0 mph4.8 kmh 29.03 in983.1 mb 0.06 in1.5 mm 0.12 in3.0 mm 0.14 in3.6 mm
06:40 AM 36.5°F2.5°C 35.7°F2.1°C 97% 1.0 mph NE1.6 kmh NE 4.0 mph6.4 kmh 29.02 in982.7 mb 0.05 in1.3 mm 0.00 in0.0 mm 0.13 in3.3 mm
06:35 AM 36.4°F2.4°C 35.6°F2.0°C 97% 2.0 mph NE3.2 kmh NE 4.0 mph6.4 kmh 29.02 in982.7 mb 0.05 in1.3 mm 0.12 in3.0 mm 0.13 in3.3 mm
06:30 AM 36.1°F2.3°C 35.3°F1.8°C 97% 2.0 mph NE3.2 kmh NE 4.0 mph6.4 kmh 29.02 in982.7 mb 0.04 in1.0 mm 0.00 in0.0 mm 0.12 in3.0 mm
06:25 AM 36.0°F2.2°C 35.2°F1.8°C 97% 2.0 mph NE3.2 kmh NE 3.0 mph4.8 kmh 29.02 in982.7 mb 0.04 in1.0 mm 0.00 in0.0 mm 0.12 in3.0 mm
06:20 AM 36.2°F2.3°C 35.2°F1.8°C 96% 2.0 mph NE3.2 kmh NE 3.0 mph4.8 kmh 29.02 in982.7 mb 0.05 in1.3 mm 0.12 in3.0 mm 0.12 in3.0 mm
06:15 AM 36.4°F2.4°C 35.6°F2.0°C 97% 2.0 mph NE3.2 kmh NE 3.0 mph4.8 kmh 29.01 in982.4 mb 0.04 in1.0 mm 0.00 in0.0 mm 0.11 in2.8 mm
06:10 AM 36.6°F2.6°C 35.8°F2.1°C 97% 1.0 mph NE1.6 kmh NE 3.0 mph4.8 kmh 29.02 in982.7 mb 0.05 in1.3 mm 0.00 in0.0 mm 0.11 in2.8 mm
06:05 AM 36.8°F2.7°C 36.0°F2.2°C 97% 1.0 mph NE1.6 kmh NE 3.0 mph4.8 kmh 29.02 in982.7 mb 0.05 in1.3 mm 0.12 in3.0 mm 0.10 in2.5 mm
06:00 AM 37.0°F2.8°C 36.2°F2.3°C 97% 1.0 mph NE1.6 kmh NE 4.0 mph6.4 kmh 29.02 in982.7 mb 0.04 in1.0 mm 0.01 in0.3 mm 0.09 in2.3 mm
05:55 AM 37.3°F2.9°C 36.5°F2.5°C 97% 2.0 mph NE3.2 kmh NE 4.0 mph6.4 kmh 29.02 in982.7 mb 0.03 in0.8 mm 0.00 in0.0 mm 0.08 in2.0 mm
05:50 AM 37.1°F2.8°C 36.3°F2.4°C 97% 2.0 mph NE3.2 kmh NE 3.0 mph4.8 kmh 29.02 in982.7 mb 0.03 in0.8 mm 0.00 in0.0 mm 0.08 in2.0 mm
05:45 AM 37.1°F2.8°C 36.3°F2.4°C 97% 2.0 mph NE3.2 kmh NE 3.0 mph4.8 kmh 29.02 in982.7 mb 0.03 in0.8 mm 0.00 in0.0 mm 0.08 in2.0 mm
05:40 AM 37.1°F2.8°C 36.3°F2.4°C 97% 2.0 mph NE3.2 kmh NE 3.0 mph4.8 kmh 29.03 in983.1 mb 0.03 in0.8 mm 0.00 in0.0 mm 0.08 in2.0 mm
05:35 AM 36.9°F2.7°C 36.1°F2.3°C 97% 1.0 mph NE1.6 kmh NE 3.0 mph4.8 kmh 29.03 in983.1 mb 0.03 in0.8 mm 0.00 in0.0 mm 0.08 in2.0 mm
05:30 AM 36.9°F2.7°C 36.1°F2.3°C 97% 1.0 mph NE1.6 kmh NE 3.0 mph4.8 kmh 29.03 in983.1 mb 0.03 in0.8 mm 0.00 in0.0 mm 0.08 in2.0 mm
05:25 AM 36.8°F2.7°C 36.0°F2.2°C 97% 1.0 mph NE1.6 kmh NE 3.0 mph4.8 kmh 29.04 in983.4 mb 0.04 in1.0 mm 0.00 in0.0 mm 0.08 in2.0 mm
05:20 AM 36.8°F2.7°C 36.0°F2.2°C 97% 1.0 mph NE1.6 kmh NE 3.0 mph4.8 kmh 29.04 in983.4 mb 0.04 in1.0 mm 0.00 in0.0 mm 0.07 in1.8 mm
05:15 AM 36.7°F2.6°C 35.9°F2.2°C 97% 1.0 mph NE1.6 kmh NE 4.0 mph6.4 kmh 29.05 in983.7 mb 0.05 in1.3 mm 0.00 in0.0 mm 0.07 in1.8 mm
05:10 AM 36.6°F2.6°C 35.8°F2.1°C 97% 1.0 mph NE1.6 kmh NE 4.0 mph6.4 kmh 29.05 in983.7 mb 0.05 in1.3 mm 0.12 in3.0 mm 0.06 in1.5 mm
05:05 AM 36.4°F2.4°C 35.4°F1.9°C 96% 1.0 mph NE1.6 kmh NE 3.0 mph4.8 kmh 29.05 in983.7 mb 0.04 in1.0 mm 0.00 in0.0 mm 0.05 in1.3 mm
05:00 AM 36.3°F2.4°C 35.3°F1.8°C 96% 2.0 mph NE3.2 kmh NE 3.0 mph4.8 kmh 29.05 in983.7 mb 0.05 in1.3 mm 0.00 in0.0 mm 0.05 in1.3 mm
04:55 AM 36.4°F2.4°C 35.4°F1.9°C 96% 2.0 mph NE3.2 kmh NE 3.0 mph4.8 kmh 29.05 in983.7 mb 0.05 in1.3 mm 0.00 in0.0 mm 0.05 in1.3 mm
04:50 AM 36.4°F2.4°C 35.4°F1.9°C 96% 2.0 mph NE3.2 kmh NE 3.0 mph4.8 kmh 29.05 in983.7 mb 0.05 in1.3 mm 0.00 in0.0 mm 0.05 in1.3 mm
04:45 AM 36.6°F2.6°C 35.6°F2.0°C 96% 2.0 mph NE3.2 kmh NE 3.0 mph4.8 kmh 29.05 in983.7 mb 0.05 in1.3 mm 0.00 in0.0 mm 0.05 in1.3 mm
04:40 AM 36.7°F2.6°C 35.7°F2.1°C 96% 2.0 mph NE3.2 kmh NE 3.0 mph4.8 kmh 29.06 in984.1 mb 0.05 in1.3 mm 0.00 in0.0 mm 0.05 in1.3 mm
04:35 AM 37.0°F2.8°C 36.0°F2.2°C 96% 1.0 mph NE1.6 kmh NE 3.0 mph4.8 kmh 29.07 in984.4 mb 0.05 in1.3 mm 0.12 in3.0 mm 0.05 in1.3 mm
04:30 AM 37.5°F3.1°C 36.5°F2.5°C 96% 1.0 mph NE1.6 kmh NE 3.0 mph4.8 kmh 29.06 in984.1 mb 0.04 in1.0 mm 0.00 in0.0 mm 0.04 in1.0 mm
04:25 AM 37.8°F3.2°C 36.8°F2.7°C 96% 1.0 mph N1.6 kmh N 3.0 mph4.8 kmh 29.07 in984.4 mb 0.04 in1.0 mm 0.12 in3.0 mm 0.04 in1.0 mm
04:20 AM 37.8°F3.2°C 36.8°F2.7°C 96% 1.0 mph N1.6 kmh N 4.0 mph6.4 kmh 29.07 in984.4 mb 0.03 in0.8 mm 0.12 in3.0 mm 0.03 in0.8 mm
04:15 AM 37.4°F3.0°C 36.4°F2.4°C 96% 1.0 mph NE1.6 kmh NE 4.0 mph6.4 kmh 29.08 in984.8 mb 0.02 in0.5 mm 0.12 in3.0 mm 0.02 in0.5 mm
04:10 AM 37.7°F3.2°C 36.7°F2.6°C 96% 1.0 mph NE1.6 kmh NE 3.0 mph4.8 kmh 29.08 in984.8 mb 0.01 in0.3 mm 0.00 in0.0 mm 0.01 in0.3 mm
04:05 AM 37.9°F3.3°C 36.9°F2.7°C 96% 2.0 mph NE3.2 kmh NE 5.0 mph8.0 kmh 29.08 in984.8 mb 0.01 in0.3 mm 0.12 in3.0 mm 0.01 in0.3 mm
04:00 AM 38.0°F3.3°C 37.0°F2.8°C 96% 2.0 mph NNE3.2 kmh NNE 5.0 mph8.0 kmh 29.07 in984.4 mb 0.00 in0.0 mm 0.00 in0.0 mm 0.00 in0.0 mm
03:55 AM 37.7°F3.2°C 36.7°F2.6°C 96% 2.0 mph N3.2 kmh N 5.0 mph8.0 kmh 29.07 in984.4 mb 0.00 in0.0 mm 0.00 in0.0 mm 0.00 in0.0 mm
03:50 AM 38.1°F3.4°C 37.1°F2.8°C 96% 2.0 mph N3.2 kmh N 5.0 mph8.0 kmh 29.08 in984.8 mb 0.00 in0.0 mm 0.00 in0.0 mm 0.00 in0.0 mm
03:45 AM 37.8°F3.2°C 36.8°F2.7°C 96% 1.0 mph N1.6 kmh N 4.0 mph6.4 kmh 29.07 in984.4 mb 0.00 in0.0 mm 0.00 in0.0 mm 0.00 in0.0 mm
03:40 AM 37.7°F3.2°C 36.7°F2.6°C 96% 1.0 mph N1.6 kmh N 3.0 mph4.8 kmh 29.08 in984.8 mb 0.00 in0.0 mm 0.00 in0.0 mm 0.00 in0.0 mm
03:35 AM 37.7°F3.2°C 36.7°F2.6°C 96% 1.0 mph NNE1.6 kmh NNE 3.0 mph4.8 kmh 29.08 in984.8 mb 0.00 in0.0 mm 0.00 in0.0 mm 0.00 in0.0 mm
03:30 AM 37.7°F3.2°C 36.9°F2.7°C 97% 1.0 mph NNE1.6 kmh NNE 3.0 mph4.8 kmh 29.08 in984.8 mb 0.00 in0.0 mm 0.00 in0.0 mm 0.00 in0.0 mm
03:25 AM 37.7°F3.2°C 36.9°F2.7°C 97% 2.0 mph NNE3.2 kmh NNE 5.0 mph8.0 kmh 29.09 in985.1 mb 0.00 in0.0 mm 0.00 in0.0 mm 0.00 in0.0 mm
03:20 AM 37.6°F3.1°C 36.8°F2.7°C 97% 2.0 mph N3.2 kmh N 5.0 mph8.0 kmh 29.08 in984.8 mb 0.00 in0.0 mm 0.00 in0.0 mm 0.00 in0.0 mm
03:15 AM 37.4°F3.0°C 36.4°F2.4°C 96% 2.0 mph N3.2 kmh N 5.0 mph8.0 kmh 29.09 in985.1 mb 0.00 in0.0 mm 0.00 in0.0 mm 0.00 in0.0 mm
03:10 AM 37.3°F2.9°C 36.3°F2.4°C 96% 2.0 mph N3.2 kmh N 5.0 mph8.0 kmh 29.10 in985.4 mb 0.00 in0.0 mm 0.00 in0.0 mm 0.00 in0.0 mm
03:05 AM 37.1°F2.8°C 36.1°F2.3°C 96% 1.0 mph NNE1.6 kmh NNE 4.0 mph6.4 kmh 29.11 in985.8 mb 0.00 in0.0 mm 0.00 in0.0 mm 0.00 in0.0 mm
03:00 AM 36.9°F2.7°C 35.9°F2.2°C 96% 2.0 mph NE3.2 kmh NE 3.0 mph4.8 kmh 29.11 in985.8 mb 0.00 in0.0 mm 0.00 in0.0 mm 0.00 in0.0 mm
02:55 AM 36.4°F2.4°C 35.4°F1.9°C 96% 2.0 mph NE3.2 kmh NE 4.0 mph6.4 kmh 29.12 in986.1 mb 0.00 in0.0 mm 0.00 in0.0 mm 0.00 in0.0 mm
02:50 AM 36.0°F2.2°C 35.0°F1.7°C 96% 1.0 mph NE1.6 kmh NE 4.0 mph6.4 kmh 29.12 in986.1 mb 0.00 in0.0 mm 0.00 in0.0 mm 0.00 in0.0 mm
02:45 AM 36.0°F2.2°C 34.7°F1.5°C 95% 1.0 mph NE1.6 kmh NE 3.0 mph4.8 kmh 29.12 in986.1 mb 0.00 in0.0 mm 0.00 in0.0 mm 0.00 in0.0 mm
02:40 AM 36.1°F2.3°C 34.8°F1.6°C 95% 1.0 mph NE1.6 kmh NE 3.0 mph4.8 kmh 29.13 in986.5 mb 0.00 in0.0 mm 0.00 in0.0 mm 0.00 in0.0 mm
02:35 AM 36.1°F2.3°C 34.8°F1.6°C 95% 1.0 mph NE1.6 kmh NE 2.0 mph3.2 kmh 29.14 in986.8 mb 0.00 in0.0 mm 0.00 in0.0 mm 0.00 in0.0 mm
02:30 AM 36.2°F2.3°C 34.9°F1.6°C 95% 1.0 mph NE1.6 kmh NE 3.0 mph4.8 kmh 29.15 in987.1 mb 0.00 in0.0 mm 0.00 in0.0 mm 0.00 in0.0 mm
02:25 AM 36.1°F2.3°C 34.8°F1.6°C 95% 2.0 mph NE3.2 kmh NE 3.0 mph4.8 kmh 29.14 in986.8 mb 0.00 in0.0 mm 0.00 in0.0 mm 0.00 in0.0 mm
02:20 AM 36.3°F2.4°C 34.7°F1.5°C 94% 1.0 mph NE1.6 kmh NE 3.0 mph4.8 kmh 29.15 in987.1 mb 0.00 in0.0 mm 0.00 in0.0 mm 0.00 in0.0 mm
02:15 AM 36.5°F2.5°C 34.9°F1.6°C 94% 1.0 mph NE1.6 kmh NE 3.0 mph4.8 kmh 29.16 in987.5 mb 0.00 in0.0 mm 0.00 in0.0 mm 0.00 in0.0 mm
02:10 AM 36.8°F2.7°C 35.2°F1.8°C 94% 2.0 mph NE3.2 kmh NE 4.0 mph6.4 kmh 29.16 in987.5 mb 0.00 in0.0 mm 0.00 in0.0 mm 0.00 in0.0 mm
02:05 AM 36.9°F2.7°C 35.3°F1.8°C 94% 2.0 mph NE3.2 kmh NE 4.0 mph6.4 kmh 29.16 in987.5 mb 0.00 in0.0 mm 0.00 in0.0 mm 0.00 in0.0 mm
02:00 AM 37.2°F2.9°C 35.4°F1.9°C 93% 1.0 mph SSW1.6 kmh SSW 4.0 mph6.4 kmh 29.16 in987.5 mb 0.00 in0.0 mm 0.00 in0.0 mm 0.00 in0.0 mm
01:55 AM 37.6°F3.1°C 35.5°F1.9°C 92% 1.0 mph SSW1.6 kmh SSW 3.0 mph4.8 kmh 29.16 in987.5 mb 0.00 in0.0 mm 0.00 in0.0 mm 0.00 in0.0 mm
01:50 AM 38.3°F3.5°C 35.9°F2.2°C 91% 1.0 mph SSW1.6 kmh SSW 3.0 mph4.8 kmh 29.16 in987.5 mb 0.00 in0.0 mm 0.00 in0.0 mm 0.00 in0.0 mm
01:45 AM 39.3°F4.1°C 36.6°F2.6°C 90% 1.0 mph SSW1.6 kmh SSW 3.0 mph4.8 kmh 29.17 in987.8 mb 0.00 in0.0 mm 0.00 in0.0 mm 0.00 in0.0 mm
01:40 AM 40.3°F4.6°C 37.6°F3.1°C 90% 1.0 mph SSW1.6 kmh SSW 3.0 mph4.8 kmh 29.17 in987.8 mb 0.00 in0.0 mm 0.00 in0.0 mm 0.00 in0.0 mm
01:35 AM 41.5°F5.3°C 39.1°F3.9°C 91% 1.0 mph SSW1.6 kmh SSW 6.0 mph9.7 kmh 29.17 in987.8 mb 0.00 in0.0 mm 0.00 in0.0 mm 0.00 in0.0 mm
01:30 AM 41.8°F5.4°C 39.6°F4.2°C 92% 3.0 mph SSW4.8 kmh SSW 9.0 mph14.5 kmh 29.17 in987.8 mb 0.00 in0.0 mm 0.00 in0.0 mm 0.00 in0.0 mm
01:25 AM 41.7°F5.4°C 39.5°F4.2°C 92% 3.0 mph S4.8 kmh S 9.0 mph14.5 kmh 29.17 in987.8 mb 0.00 in0.0 mm 0.00 in0.0 mm 0.00 in0.0 mm
01:20 AM 41.5°F5.3°C 39.3°F4.1°C 92% 2.0 mph S3.2 kmh S 10.0 mph16.1 kmh 29.18 in988.1 mb 0.00 in0.0 mm 0.00 in0.0 mm 0.00 in0.0 mm
01:15 AM 41.5°F5.3°C 39.3°F4.1°C 92% 3.0 mph SSW4.8 kmh SSW 10.0 mph16.1 kmh 29.17 in987.8 mb 0.00 in0.0 mm 0.00 in0.0 mm 0.00 in0.0 mm
01:10 AM 41.4°F5.2°C 39.3°F4.1°C 92% 4.0 mph SSW6.4 kmh SSW 7.0 mph11.3 kmh 29.18 in988.1 mb 0.00 in0.0 mm 0.00 in0.0 mm 0.00 in0.0 mm
01:05 AM 41.3°F5.2°C 39.2°F4.0°C 92% 4.0 mph SSW6.4 kmh SSW 9.0 mph14.5 kmh 29.19 in988.5 mb 0.00 in0.0 mm 0.00 in0.0 mm 0.00 in0.0 mm
01:00 AM 41.2°F5.1°C 39.1°F3.9°C 92% 3.0 mph SSW4.8 kmh SSW 9.0 mph14.5 kmh 29.19 in988.5 mb 0.00 in0.0 mm 0.00 in0.0 mm 0.00 in0.0 mm
12:55 AM 41.2°F5.1°C 39.3°F4.1°C 93% 3.0 mph SSW4.8 kmh SSW 9.0 mph14.5 kmh 29.20 in988.8 mb 0.00 in0.0 mm 0.00 in0.0 mm 0.00 in0.0 mm
12:50 AM 40.9°F4.9°C 39.3°F4.1°C 94% 2.0 mph S3.2 kmh S 9.0 mph14.5 kmh 29.20 in988.8 mb 0.00 in0.0 mm 0.00 in0.0 mm 0.00 in0.0 mm
12:45 AM 40.7°F4.8°C 39.1°F3.9°C 94% 2.0 mph SSW3.2 kmh SSW 7.0 mph11.3 kmh 29.20 in988.8 mb 0.00 in0.0 mm 0.00 in0.0 mm 0.00 in0.0 mm
12:40 AM 40.4°F4.7°C 38.8°F3.8°C 94% 2.0 mph SSW3.2 kmh SSW 13.0 mph20.9 kmh 29.20 in988.8 mb 0.00 in0.0 mm 0.00 in0.0 mm 0.00 in0.0 mm
12:35 AM 40.2°F4.6°C 39.2°F4.0°C 96% 3.0 mph S4.8 kmh S 13.0 mph20.9 kmh 29.20 in988.8 mb 0.00 in0.0 mm 0.00 in0.0 mm 0.00 in0.0 mm
12:30 AM 40.0°F4.4°C 39.2°F4.0°C 97% 3.0 mph SSW4.8 kmh SSW 8.0 mph12.9 kmh 29.21 in989.2 mb 0.00 in0.0 mm 0.00 in0.0 mm 0.00 in0.0 mm
12:25 AM 39.6°F4.2°C 38.8°F3.8°C 97% 3.0 mph SSW4.8 kmh SSW 8.0 mph12.9 kmh 29.22 in989.5 mb 0.00 in0.0 mm 0.00 in0.0 mm 0.00 in0.0 mm
12:20 AM 39.2°F4.0°C 38.4°F3.6°C 97% 4.0 mph S6.4 kmh S 9.0 mph14.5 kmh 29.22 in989.5 mb 0.00 in0.0 mm 0.00 in0.0 mm 0.00 in0.0 mm
12:15 AM 38.6°F3.7°C 37.8°F3.2°C 97% 3.0 mph SSW4.8 kmh SSW 9.0 mph14.5 kmh 29.23 in989.8 mb 0.00 in0.0 mm 0.00 in0.0 mm 0.00 in0.0 mm
12:10 AM 37.1°F2.8°C 36.1°F2.3°C 96% 2.0 mph SSW3.2 kmh SSW 9.0 mph14.5 kmh 29.23 in989.8 mb 0.00 in0.0 mm 0.00 in0.0 mm 0.00 in0.0 mm
12:05 AM 35.0°F1.7°C 34.0°F1.1°C 96% 1.0 mph N1.6 kmh N 4.0 mph6.4 kmh 29.24 in990.2 mb 0.00 in0.0 mm 0.00 in0.0 mm 0.00 in0.0 mm
12:00 AM 35.0°F1.7°C 34.0°F1.1°C 96% Calm Calm 3.0 mph4.8 kmh 29.24 in990.2 mb 0.00 in0.0 mm 0.00 in0.0 mm 0.00 in0.0 mm